Terminal Aerodrome Forecast
Issued by NWS Indianapolis, IN

Home | Current Version | Previous Version | Text Only | Print | Product List | Glossary On
Versions: 1 2 3 4 5 6 7 8 9 10 11 12 13 14 15 16 17 18 19 20 21 22 23 24
257
FTUS43 KIND 241422 AAA
TAFIND
TAF AMD
KIND 241422Z 2414/2518 20012G23KT P6SM BKN110
     FM241600 21015G25KT P6SM BKN025
     FM242000 20016G24KT P6SM BKN040
     FM250800 16009KT P6SM OVC045
     FM251000 16009KT P6SM OVC070 WS020/19050KT
     FM251400 17010G19KT P6SM BKN100 WS007/19015KT
     FM251500 17011G22KT P6SM BKN090=

USA.gov is the U.S. government's official web portal to all federal, state and local government web resources and services.